createdAt,value
2018-01-05T13:29:48.578Z,7.50
2018-01-05T13:32:16.514Z,8.07
2018-01-05T13:34:44.196Z,10.80
2018-01-05T13:37:11.762Z,6.57
2018-01-05T13:39:39.307Z,12.00
2018-01-05T13:42:06.874Z,13.33
2018-01-05T13:44:34.411Z,32.23
2018-01-05T13:47:02.100Z,21.67
2018-01-05T13:49:29.663Z,16.00
2018-01-05T13:51:57.286Z,27.23
2018-01-05T13:54:24.858Z,11.60
2018-01-05T13:56:52.482Z,11.63
2018-01-05T13:59:20.158Z,9.50
2018-01-05T14:01:47.774Z,15.10
2018-01-05T14:04:15.334Z,25.27
2018-01-05T14:06:42.905Z,9.13
2018-01-05T14:09:10.527Z,8.27
2018-01-05T14:11:38.203Z,16.87
2018-01-05T14:14:05.812Z,25.30
2018-01-05T14:16:33.466Z,20.70
2018-01-05T14:19:01.038Z,20.60
2018-01-05T14:21:28.594Z,7.53
2018-01-05T14:23:56.273Z,12.63
2018-01-05T14:26:23.908Z,12.37
2018-01-05T14:28:51.483Z,14.47
2018-01-05T14:31:19.051Z,12.80
2018-01-05T14:33:46.678Z,20.40
2018-01-05T14:36:14.294Z,10.47
2018-01-05T14:38:41.854Z,14.97
2018-01-05T14:41:09.414Z,24.23
2018-01-05T14:43:36.986Z,83.20
2018-01-05T14:46:04.541Z,110.93
2018-01-05T14:48:32.162Z,117.93
2018-01-05T14:50:59.734Z,81.83
2018-01-05T14:53:27.370Z,89.97
2018-01-05T14:55:54.956Z,72.00
2018-01-05T14:58:22.523Z,109.50
2018-01-05T15:00:50.156Z,118.67
2018-01-05T15:03:17.719Z,92.93
2018-01-05T15:05:45.361Z,68.67
2018-01-05T15:08:12.991Z,60.67
2018-01-05T15:10:40.559Z,88.17
2018-01-05T15:13:08.239Z,84.23
2018-01-05T15:15:35.841Z,83.00
2018-01-05T15:18:03.414Z,83.10
2018-01-05T15:20:31.060Z,93.27
2018-01-05T15:22:58.649Z,108.63
2018-01-05T15:25:26.275Z,145.23
2018-01-05T15:27:53.910Z,188.17
2018-01-05T15:30:21.489Z,164.23
2018-01-05T15:32:49.048Z,204.60
2018-01-05T15:35:16.679Z,219.40
2018-01-05T15:37:44.397Z,227.30
2018-01-05T15:40:11.975Z,338.33
2018-01-05T15:42:39.554Z,254.67
2018-01-05T15:45:07.137Z,219.23
2018-01-05T15:47:34.717Z,223.53
2018-01-05T15:50:02.348Z,243.77
2018-01-05T15:52:30.017Z,248.53
2018-01-05T15:54:57.594Z,264.67
2018-01-05T15:57:25.186Z,246.33
2018-01-05T15:59:52.754Z,219.60
2018-01-05T16:02:20.386Z,200.10
2018-01-05T16:04:48.011Z,210.07
2018-01-05T16:07:15.582Z,204.10
2018-01-05T16:09:43.231Z,241.23
2018-01-05T16:12:10.861Z,320.37
2018-01-05T16:14:38.486Z,328.13
2018-01-05T16:17:06.119Z,347.67
2018-01-05T16:19:33.696Z,318.53
2018-01-05T16:22:01.302Z,311.10
2018-01-05T16:24:28.884Z,316.97
2018-01-05T16:26:56.520Z,265.77
2018-01-05T16:29:24.166Z,283.57
2018-01-05T16:31:51.742Z,331.20
